NCAR-RAP Real-Time Weather Data

Output produced by METARs form (06 May 2021  15:29 UTC)
found at http://weather.rap.ucar.edu/surface/
 
KMTH 061453Z AUTO VRB03KT 10SM CLR 31/23 A3007 RMK AO2 SLP181 T03110228 53007
KMTH 061353Z AUTO 11004KT 10SM CLR 30/23 A3006 RMK AO2 SLP178 T03000228
KMTH 061253Z AUTO 12004KT 10SM CLR 29/22 A3005 RMK AO2 SLP177 T02890222
KMTH 061153Z AUTO 11004KT 10SM CLR 28/23 A3005 RMK AO2 SLP174 T02780228 10278 20261 53014
KMTH 061053Z AUTO 13004KT 10SM SCT020 27/22 A3003 RMK AO2 SLP170 T02670222
KMTH 060953Z AUTO 12003KT 10SM FEW020 27/22 A3001 RMK AO2 SLP163 T02670222
KMTH 060853Z AUTO 14005KT 10SM FEW018 27/23 A3001 RMK AO2 SLP161 T02670228 56010
KMTH 060753Z AUTO 12004KT 10SM FEW019 27/22 A3001 RMK AO2 SLP162 T02670222
KMTH 060653Z AUTO VRB03KT 10SM SCT019 27/22 A3002 RMK AO2 SLP166 T02670222
KMTH 060553Z AUTO 10003KT 10SM CLR 26/22 A3004 RMK AO2 SLP172 T02610222 10278 20261 58004
KMTH 060453Z AUTO 06004KT 10SM CLR 27/22 A3005 RMK AO2 SLP176 T02670222 403170267
KMTH 060353Z AUTO 08004KT 10SM CLR 27/22 A3006 RMK AO2 SLP179 T02670222
KMTH 060253Z AUTO 09005KT 10SM CLR 27/22 A3005 RMK AO2 SLP176 T02670222 53013
KMTH 060153Z AUTO 13005KT 10SM CLR 27/22 A3003 RMK AO2 SLP169 T02720222
KMTH 060053Z AUTO 10004KT 10SM CLR 27/22 A3002 RMK AO2 SLP166 T02720217
KMTH 052353Z AUTO 11004KT 10SM CLR 28/21 A3001 RMK AO2 SLP163 T02780211 10317 20278 55003